createdAt,value
2023-04-02T00:01:38.528Z,62.12
2023-04-02T00:04:14.887Z,62.61
2023-04-02T00:06:46.627Z,63.23
2023-04-02T00:09:14.539Z,63.11
2023-04-02T00:11:48.838Z,64.15
2023-04-02T00:14:29.469Z,64.33
2023-04-02T00:17:00.360Z,65.32
2023-04-02T00:19:47.853Z,65.83
2023-04-02T00:22:27.442Z,65.79
2023-04-02T00:24:58.004Z,65.95
2023-04-02T00:27:25.970Z,65.54
2023-04-02T00:29:56.427Z,64.31
2023-04-02T00:32:31.335Z,63.93
2023-04-02T00:35:00.220Z,63.85
2023-04-02T00:37:39.229Z,63.87
2023-04-02T00:40:20.101Z,63.51
2023-04-02T00:42:50.173Z,63.42
2023-04-02T00:45:25.412Z,63.90
2023-04-02T00:47:53.362Z,62.60
2023-04-02T00:50:29.118Z,62.59
2023-04-02T00:53:00.184Z,62.72
2023-04-02T00:55:37.068Z,62.78
2023-04-02T00:58:17.575Z,62.22
2023-04-02T01:00:50.784Z,62.12
2023-04-02T01:03:19.561Z,61.86
2023-04-02T01:05:50.616Z,61.27
2023-04-02T01:08:27.709Z,61.56
2023-04-02T01:11:04.803Z,61.88
2023-04-02T01:13:35.738Z,62.48
2023-04-02T01:16:17.068Z,62.70
2023-04-02T01:19:18.490Z,63.25
2023-04-02T01:22:03.246Z,62.84
2023-04-02T01:24:34.080Z,63.53
2023-04-02T01:27:05.707Z,63.74
2023-04-02T01:29:40.331Z,62.82
2023-04-02T01:32:13.959Z,62.95
2023-04-02T01:34:46.119Z,63.12
2023-04-02T01:37:32.816Z,64.22
2023-04-02T01:40:31.150Z,65.29
2023-04-02T01:43:11.072Z,65.35
2023-04-02T01:45:39.585Z,66.20
2023-04-02T01:48:18.115Z,66.65
2023-04-02T01:50:49.987Z,67.37
2023-04-02T01:53:21.807Z,66.86
2023-04-02T01:56:01.800Z,67.12
2023-04-02T01:58:32.566Z,67.43
2023-04-02T02:01:17.488Z,67.79
2023-04-02T02:03:46.173Z,66.93
2023-04-02T02:06:16.885Z,66.70
2023-04-02T02:08:54.357Z,67.24
2023-04-02T02:11:26.435Z,66.83
2023-04-02T02:13:58.402Z,66.59
2023-04-02T02:16:28.460Z,65.40
2023-04-02T02:19:05.066Z,65.83
2023-04-02T02:21:43.503Z,66.23
2023-04-02T02:24:32.422Z,65.72
2023-04-02T02:27:18.847Z,65.34
2023-04-02T02:29:56.978Z,65.46
2023-04-02T02:32:29.637Z,65.96
2023-04-02T02:35:20.178Z,66.08
2023-04-02T02:37:57.742Z,66.74
2023-04-02T02:40:37.042Z,67.06
2023-04-02T02:43:10.571Z,67.61
2023-04-02T02:45:41.278Z,68.32
2023-04-02T02:48:15.651Z,68.88
2023-04-02T02:50:44.966Z,69.32
2023-04-02T02:53:22.676Z,69.68
2023-04-02T02:55:57.221Z,69.66
2023-04-02T02:58:32.107Z,70.25
2023-04-02T03:01:23.329Z,70.44
2023-04-02T03:03:55.531Z,72.10
2023-04-02T03:06:25.548Z,72.38
2023-04-02T03:09:07.135Z,72.06
2023-04-02T03:11:46.892Z,71.74
2023-04-02T03:14:46.854Z,71.95
2023-04-02T03:17:25.671Z,72.09
2023-04-02T03:20:14.915Z,71.34
2023-04-02T03:22:49.584Z,72.02
2023-04-02T03:25:37.658Z,72.22
2023-04-02T03:28:13.485Z,71.53
2023-04-02T03:30:58.205Z,71.44
2023-04-02T03:33:35.168Z,70.98
2023-04-02T03:36:20.331Z,71.06
2023-04-02T03:39:01.553Z,71.34
2023-04-02T03:41:38.307Z,71.36
2023-04-02T03:44:19.658Z,70.84
2023-04-02T03:46:57.641Z,70.61
2023-04-02T03:49:37.042Z,70.60
2023-04-02T03:52:14.636Z,70.37
2023-04-02T03:54:54.226Z,69.56
2023-04-02T03:57:38.872Z,70.23
2023-04-02T04:00:20.496Z,70.23
2023-04-02T04:02:59.413Z,69.64
2023-04-02T04:05:32.511Z,70.90
2023-04-02T04:08:14.106Z,70.98
2023-04-02T04:10:43.593Z,71.21
2023-04-02T04:13:21.104Z,71.18
2023-04-02T04:15:58.516Z,71.02
2023-04-02T04:18:35.189Z,70.70
2023-04-02T04:21:37.569Z,71.15
2023-04-02T04:24:22.834Z,71.72
2023-04-02T04:27:13.364Z,72.06
2023-04-02T04:30:04.448Z,72.18
2023-04-02T04:32:39.406Z,71.98
2023-04-02T04:35:35.575Z,72.29
2023-04-02T04:38:12.268Z,72.33
2023-04-02T04:40:52.726Z,72.57
2023-04-02T04:43:44.134Z,73.54
2023-04-02T04:46:28.405Z,74.83
2023-04-02T04:49:14.349Z,75.58
2023-04-02T04:51:48.506Z,75.43
2023-04-02T04:54:17.358Z,75.26
2023-04-02T04:56:51.933Z,75.70
2023-04-02T04:59:36.626Z,75.16
2023-04-02T05:02:17.667Z,75.54
2023-04-02T05:04:51.902Z,75.17
2023-04-02T05:07:31.911Z,75.29
2023-04-02T05:10:17.484Z,74.61
2023-04-02T05:12:59.457Z,75.31
2023-04-02T05:15:42.448Z,74.41
2023-04-02T05:18:22.487Z,74.58
2023-04-02T05:21:04.194Z,74.87
2023-04-02T05:23:40.648Z,74.95
2023-04-02T05:26:25.020Z,74.56
2023-04-02T05:29:01.250Z,74.54
2023-04-02T05:32:02.055Z,74.26
2023-04-02T05:34:35.583Z,75.46
2023-04-02T05:37:09.350Z,75.63
2023-04-02T05:39:37.447Z,76.66
2023-04-02T05:42:08.791Z,77.53
2023-04-02T05:45:34.911Z,79.35
2023-04-02T05:48:17.332Z,79.53
2023-04-02T05:50:49.811Z,81.11
2023-04-02T05:53:33.803Z,81.22
2023-04-02T05:56:11.685Z,81.76
2023-04-02T05:58:52.703Z,83.00
2023-04-02T06:01:45.922Z,83.16
2023-04-02T06:04:36.420Z,82.17
2023-04-02T06:07:11.496Z,82.82
2023-04-02T06:10:00.928Z,82.31
2023-04-02T06:12:49.767Z,81.90
2023-04-02T06:15:23.766Z,81.23
2023-04-02T06:17:59.471Z,80.02
2023-04-02T06:20:28.443Z,80.42
2023-04-02T06:23:14.398Z,79.99
2023-04-02T06:25:49.808Z,79.80
2023-04-02T06:28:26.537Z,78.76
2023-04-02T06:31:01.260Z,78.89
2023-04-02T06:33:35.766Z,77.64
2023-04-02T06:36:05.296Z,76.69
2023-04-02T06:41:21.518Z,74.24
2023-04-02T06:44:20.373Z,72.50
2023-04-02T06:47:00.263Z,72.23
2023-04-02T06:49:51.590Z,72.59
2023-04-02T06:52:51.297Z,72.55
2023-04-02T06:55:49.143Z,71.91
2023-04-02T06:58:22.055Z,72.74
2023-04-02T07:00:52.167Z,74.52
2023-04-02T07:03:31.808Z,76.07
2023-04-02T07:06:06.001Z,76.34
2023-04-02T07:08:35.612Z,76.13
2023-04-02T07:11:03.483Z,76.32
2023-04-02T07:13:31.549Z,76.68
2023-04-02T07:15:59.512Z,76.69
2023-04-02T07:18:55.647Z,75.39
2023-04-02T07:21:24.394Z,73.52
2023-04-02T07:23:53.013Z,73.30
2023-04-02T07:26:25.833Z,73.29
2023-04-02T07:28:57.232Z,73.07
2023-04-02T07:31:28.506Z,73.77
2023-04-02T07:34:00.325Z,73.85
2023-04-02T07:36:29.878Z,73.19
2023-04-02T07:38:58.283Z,71.71
2023-04-02T07:41:27.793Z,73.22
2023-04-02T07:43:55.661Z,72.64
2023-04-02T07:46:23.612Z,73.32
2023-04-02T07:48:51.658Z,72.65
2023-04-02T07:51:23.257Z,72.64
2023-04-02T07:53:56.160Z,72.41
2023-04-02T07:56:25.458Z,71.95
2023-04-02T07:58:53.197Z,71.61
2023-04-02T08:01:26.710Z,72.70
2023-04-02T08:03:56.013Z,72.28
2023-04-02T08:06:24.808Z,70.99
2023-04-02T08:08:52.865Z,71.41
2023-04-02T08:11:21.059Z,71.76
2023-04-02T08:13:49.019Z,70.84
2023-04-02T08:16:17.118Z,71.15
2023-04-02T08:18:47.970Z,70.94
2023-04-02T08:21:16.651Z,70.41
2023-04-02T08:23:45.205Z,70.63
2023-04-02T08:26:18.753Z,69.93
2023-04-02T08:28:46.836Z,69.80
2023-04-02T08:31:14.840Z,69.68
2023-04-02T08:33:42.893Z,68.23
2023-04-02T08:36:18.214Z,67.71
2023-04-02T08:38:47.116Z,68.03
2023-04-02T08:41:28.052Z,67.79
2023-04-02T08:44:32.465Z,66.11
2023-04-02T08:47:06.519Z,65.09
2023-04-02T08:49:43.235Z,65.33
2023-04-02T08:52:26.867Z,68.52
2023-04-02T08:54:56.769Z,69.37
2023-04-02T08:57:27.740Z,69.45
2023-04-02T09:00:07.905Z,70.00
2023-04-02T09:02:46.230Z,70.56
2023-04-02T09:05:23.305Z,71.88
2023-04-02T09:07:52.854Z,73.49
2023-04-02T09:10:23.282Z,74.23
2023-04-02T09:12:53.521Z,75.24
2023-04-02T09:15:41.714Z,75.04
2023-04-02T09:18:16.969Z,75.87
2023-04-02T09:20:46.227Z,75.75
2023-04-02T09:23:24.038Z,76.07
2023-04-02T09:26:03.592Z,76.58
2023-04-02T09:28:32.531Z,76.28
2023-04-02T09:31:18.328Z,74.66
2023-04-02T09:33:50.488Z,73.82
2023-04-02T09:36:33.661Z,72.85
2023-04-02T09:39:23.369Z,72.38
2023-04-02T09:42:02.793Z,70.81
2023-04-02T09:44:34.318Z,71.44
2023-04-02T09:47:05.581Z,70.18
2023-04-02T09:49:36.953Z,71.37
2023-04-02T09:52:41.870Z,67.92
2023-04-02T09:55:18.598Z,68.38
2023-04-02T09:57:48.332Z,67.76
2023-04-02T10:00:32.068Z,66.25
2023-04-02T10:03:30.299Z,65.36
2023-04-02T10:06:13.263Z,65.13
2023-04-02T10:08:44.391Z,66.20
2023-04-02T10:11:46.400Z,67.75
2023-04-02T10:14:22.075Z,66.21
2023-04-02T10:16:58.261Z,64.60
2023-04-02T10:19:34.587Z,65.00
2023-04-02T10:22:09.586Z,65.82
2023-04-02T10:24:37.576Z,63.18
2023-04-02T10:27:23.045Z,63.51
2023-04-02T10:30:09.729Z,62.87
2023-04-02T10:33:01.512Z,60.89
2023-04-02T10:36:12.241Z,60.62
2023-04-02T10:39:16.313Z,59.34
2023-04-02T10:41:48.899Z,54.26
2023-04-02T10:44:29.886Z,55.78
2023-04-02T10:47:19.076Z,53.36
2023-04-02T10:50:14.460Z,52.66
2023-04-02T10:53:06.389Z,53.01
2023-04-02T10:55:41.079Z,50.94
2023-04-02T10:58:24.526Z,50.86
2023-04-02T11:01:02.177Z,49.97
2023-04-02T11:03:42.307Z,48.17
2023-04-02T11:06:22.826Z,47.04
2023-04-02T11:08:54.126Z,45.41
2023-04-02T11:11:26.992Z,45.33
2023-04-02T11:14:12.956Z,43.84
2023-04-02T11:16:44.635Z,42.50
2023-04-02T11:19:18.891Z,42.41
2023-04-02T11:22:11.086Z,42.35
2023-04-02T11:24:53.813Z,40.94
2023-04-02T11:27:34.078Z,40.18
2023-04-02T11:30:18.806Z,40.13
2023-04-02T11:32:49.875Z,42.00
2023-04-02T11:35:32.341Z,42.06
2023-04-02T11:38:24.121Z,41.50
2023-04-02T11:40:59.537Z,42.10
2023-04-02T11:43:33.534Z,43.46
2023-04-02T11:46:16.818Z,38.67
2023-04-02T11:48:44.687Z,37.73
2023-04-02T11:51:36.297Z,39.60
2023-04-02T11:54:05.136Z,40.80
2023-04-02T11:56:41.176Z,46.39
2023-04-02T11:59:33.625Z,49.05
2023-04-02T12:02:07.429Z,52.50
2023-04-02T12:05:07.733Z,56.72
2023-04-02T12:08:06.063Z,55.61
2023-04-02T12:11:03.914Z,56.26
2023-04-02T12:13:41.367Z,57.15
2023-04-02T12:16:12.336Z,57.81
2023-04-02T12:18:48.824Z,58.88
2023-04-02T12:21:18.547Z,58.74
2023-04-02T12:23:48.637Z,57.03
2023-04-02T12:26:43.126Z,57.11
2023-04-02T12:29:28.694Z,55.99
2023-04-02T12:31:59.135Z,55.64
2023-04-02T12:34:30.315Z,56.81
2023-04-02T12:37:03.341Z,57.79
2023-04-02T12:39:35.242Z,57.28
2023-04-02T12:42:03.143Z,55.67
2023-04-02T12:44:31.511Z,54.01
2023-04-02T12:46:59.681Z,54.74
2023-04-02T12:49:44.449Z,52.30
2023-04-02T12:52:15.571Z,52.95
2023-04-02T12:54:50.649Z,51.02
2023-04-02T12:57:25.573Z,47.18
2023-04-02T12:59:55.756Z,45.72
2023-04-02T13:02:26.512Z,42.49
2023-04-02T13:04:57.615Z,39.70
2023-04-02T13:10:25.843Z,36.18
2023-04-02T13:13:02.182Z,34.27
2023-04-02T13:15:33.321Z,32.66
2023-04-02T13:18:13.359Z,32.69
2023-04-02T13:20:43.618Z,32.48
2023-04-02T13:23:29.892Z,28.67
2023-04-02T13:26:00.130Z,27.25
2023-04-02T13:28:29.370Z,27.18
2023-04-02T13:30:58.149Z,25.49
2023-04-02T13:33:27.674Z,25.05
2023-04-02T13:35:55.783Z,22.80
2023-04-02T13:38:24.473Z,22.01
2023-04-02T13:40:52.533Z,21.07
2023-04-02T13:43:21.129Z,20.78
2023-04-02T13:45:55.688Z,20.03
2023-04-02T13:48:26.376Z,21.29
2023-04-02T13:50:54.353Z,20.62
2023-04-02T13:53:29.731Z,19.66
2023-04-02T13:55:57.750Z,17.22
2023-04-02T13:58:25.828Z,18.34
2023-04-02T14:00:55.075Z,17.12
2023-04-02T14:03:24.214Z,17.38
2023-04-02T14:06:25.553Z,18.63
2023-04-02T14:09:28.514Z,20.43
2023-04-02T14:12:12.804Z,20.80
2023-04-02T14:14:48.420Z,22.09
2023-04-02T14:17:29.866Z,19.88
2023-04-02T14:20:23.279Z,20.26
2023-04-02T14:23:06.544Z,20.91
2023-04-02T14:25:55.598Z,20.98
2023-04-02T14:28:43.070Z,21.96
2023-04-02T14:31:48.882Z,21.04
2023-04-02T14:34:16.690Z,21.79
2023-04-02T14:36:56.625Z,22.42
2023-04-02T14:39:50.994Z,22.72
2023-04-02T14:42:27.519Z,23.86
2023-04-02T14:45:12.271Z,24.63
2023-04-02T14:47:45.572Z,25.14
2023-04-02T14:50:28.163Z,25.41
2023-04-02T14:53:02.037Z,25.39
2023-04-02T14:55:35.241Z,25.63
2023-04-02T14:58:09.440Z,25.84
2023-04-02T15:00:50.132Z,26.42
2023-04-02T15:03:26.807Z,26.41
2023-04-02T15:06:10.877Z,25.99
2023-04-02T15:09:09.683Z,25.42
2023-04-02T15:11:42.558Z,27.20
2023-04-02T15:14:11.340Z,27.82
2023-04-02T15:16:48.702Z,27.40
2023-04-02T15:19:18.605Z,27.63
2023-04-02T15:22:13.480Z,26.57
2023-04-02T15:24:42.890Z,26.79
2023-04-02T15:27:38.877Z,26.89
2023-04-02T15:30:15.006Z,26.65
2023-04-02T15:32:47.259Z,27.80
2023-04-02T15:35:43.862Z,27.57
2023-04-02T15:38:17.417Z,27.44
2023-04-02T15:41:06.731Z,28.38
2023-04-02T15:43:55.078Z,28.29
2023-04-02T15:46:39.367Z,29.22
2023-04-02T15:49:29.740Z,29.10
2023-04-02T15:52:15.145Z,29.92
2023-04-02T15:54:42.978Z,29.13
2023-04-02T15:57:34.336Z,29.32
2023-04-02T16:00:15.553Z,29.81
2023-04-02T16:02:59.220Z,29.74
2023-04-02T16:05:53.770Z,29.95
2023-04-02T16:08:40.340Z,29.61
2023-04-02T16:11:13.515Z,30.26
2023-04-02T16:13:43.152Z,29.92
2023-04-02T16:16:31.382Z,30.99
2023-04-02T16:19:45.481Z,30.83
2023-04-02T16:22:24.959Z,32.55
2023-04-02T16:25:19.709Z,32.29
2023-04-02T16:27:54.658Z,32.52
2023-04-02T16:30:36.570Z,32.39
2023-04-02T16:33:33.318Z,32.77
2023-04-02T16:36:05.623Z,32.40
2023-04-02T16:39:10.968Z,33.50
2023-04-02T16:42:19.333Z,34.21
2023-04-02T16:44:59.357Z,34.22
2023-04-02T16:47:50.492Z,34.96
2023-04-02T16:51:02.572Z,34.21
2023-04-02T16:53:30.500Z,33.93
2023-04-02T16:56:41.559Z,33.33
2023-04-02T16:59:18.489Z,33.27
2023-04-02T17:02:35.569Z,33.27
2023-04-02T17:05:31.559Z,34.01
2023-04-02T17:08:21.581Z,33.77
2023-04-02T17:11:00.357Z,33.97
2023-04-02T17:13:47.367Z,34.34
2023-04-02T17:16:22.109Z,35.00
2023-04-02T17:18:55.687Z,35.17
2023-04-02T17:21:30.271Z,34.94
2023-04-02T17:24:18.061Z,35.25
2023-04-02T17:26:53.126Z,35.58
2023-04-02T17:29:27.447Z,35.77
2023-04-02T17:32:01.386Z,35.87
2023-04-02T17:34:30.046Z,35.86
2023-04-02T17:37:21.866Z,36.15
2023-04-02T17:40:09.450Z,36.32
2023-04-02T17:43:10.723Z,36.67
2023-04-02T17:45:53.528Z,36.12
2023-04-02T17:48:32.489Z,36.21
2023-04-02T17:51:18.179Z,36.71
2023-04-02T17:54:25.923Z,37.17
2023-04-02T17:57:08.595Z,36.22
2023-04-02T18:00:21.002Z,36.63
2023-04-02T18:03:21.687Z,37.75
2023-04-02T18:06:01.135Z,39.10
2023-04-02T18:08:50.589Z,41.27
2023-04-02T18:11:39.865Z,43.67
2023-04-02T18:14:38.371Z,47.36
2023-04-02T18:17:35.333Z,49.33
2023-04-02T18:20:28.067Z,51.02
2023-04-02T18:23:12.570Z,52.33
2023-04-02T18:25:55.504Z,53.07
2023-04-02T18:28:44.936Z,53.98
2023-04-02T18:31:42.541Z,55.06
2023-04-02T18:34:40.119Z,55.12
2023-04-02T18:37:15.217Z,56.28
2023-04-02T18:40:01.385Z,55.95
2023-04-02T18:42:40.277Z,55.73
2023-04-02T18:45:30.075Z,56.07
2023-04-02T18:48:34.678Z,56.16
2023-04-02T18:51:05.841Z,56.17
2023-04-02T18:53:42.668Z,56.71
2023-04-02T18:56:16.544Z,56.35
2023-04-02T18:59:00.424Z,56.89
2023-04-02T19:01:53.485Z,56.64
2023-04-02T19:04:30.988Z,57.55
2023-04-02T19:07:11.414Z,58.02
2023-04-02T19:09:44.837Z,57.81
2023-04-02T19:12:22.403Z,57.64
2023-04-02T19:14:51.956Z,58.14
2023-04-02T19:18:07.446Z,58.02
2023-04-02T19:20:58.836Z,57.87
2023-04-02T19:26:25.165Z,58.50
2023-04-02T19:29:17.199Z,57.93
2023-04-02T19:31:51.360Z,58.12
2023-04-02T19:34:40.187Z,57.37
2023-04-02T19:37:28.970Z,57.18
2023-04-02T19:40:08.170Z,57.44
2023-04-02T19:42:48.486Z,56.86
2023-04-02T19:45:28.871Z,56.52
2023-04-02T19:48:00.886Z,55.96
2023-04-02T19:50:30.115Z,55.56
2023-04-02T19:53:03.082Z,55.37
2023-04-02T19:55:32.029Z,55.32
2023-04-02T19:58:17.358Z,54.64
2023-04-02T20:00:50.380Z,54.83
2023-04-02T20:03:18.398Z,54.76
2023-04-02T20:05:48.193Z,54.20
2023-04-02T20:08:17.035Z,54.28
2023-04-02T20:10:45.918Z,54.09
2023-04-02T20:13:14.150Z,53.58
2023-04-02T20:15:42.067Z,52.78
2023-04-02T20:18:12.210Z,52.75
2023-04-02T20:20:40.571Z,52.30
2023-04-02T20:23:16.426Z,53.09
2023-04-02T20:25:46.549Z,52.52
2023-04-02T20:28:16.701Z,52.56
2023-04-02T20:30:44.865Z,51.34
2023-04-02T20:33:14.986Z,51.14
2023-04-02T20:35:47.364Z,52.21
2023-04-02T20:38:16.637Z,52.36
2023-04-02T20:40:46.582Z,52.87
2023-04-02T20:43:29.823Z,53.12
2023-04-02T20:46:01.156Z,53.18
2023-04-02T20:48:32.891Z,53.42
2023-04-02T20:51:03.354Z,53.91
2023-04-02T20:53:33.093Z,53.72
2023-04-02T20:56:09.273Z,54.00
2023-04-02T20:58:38.363Z,53.09
2023-04-02T21:01:11.114Z,51.28
2023-04-02T21:03:40.218Z,52.57
2023-04-02T21:06:17.569Z,54.52
2023-04-02T21:08:49.425Z,51.94
2023-04-02T21:11:18.381Z,50.40
2023-04-02T21:13:46.543Z,51.24
2023-04-02T21:16:20.679Z,52.14
2023-04-02T21:18:51.772Z,53.23
2023-04-02T21:21:21.442Z,52.91
2023-04-02T21:23:55.610Z,51.79
2023-04-02T21:26:23.848Z,51.66
2023-04-02T21:28:51.783Z,52.24
2023-04-02T21:31:22.486Z,50.85
2023-04-02T21:33:53.412Z,50.51
2023-04-02T21:36:28.794Z,51.15
2023-04-02T21:39:06.704Z,51.81
2023-04-02T21:41:36.853Z,51.75
2023-04-02T21:44:08.596Z,52.26
2023-04-02T21:46:38.881Z,51.42
2023-04-02T21:49:10.217Z,51.62
2023-04-02T21:51:39.852Z,51.68
2023-04-02T21:54:08.334Z,51.98
2023-04-02T21:56:39.370Z,52.36
2023-04-02T21:59:09.825Z,52.40
2023-04-02T22:01:41.942Z,52.63
2023-04-02T22:04:12.336Z,52.78
2023-04-02T22:06:42.314Z,53.93
2023-04-02T22:09:15.629Z,56.11
2023-04-02T22:11:54.709Z,56.65
2023-04-02T22:17:08.658Z,55.21
2023-04-02T22:19:36.594Z,55.28
2023-04-02T22:22:04.403Z,54.52
2023-04-02T22:24:32.412Z,54.93
2023-04-02T22:27:00.405Z,55.08
2023-04-02T22:29:28.433Z,56.08
2023-04-02T22:32:14.666Z,55.92
2023-04-02T22:34:45.829Z,55.84
2023-04-02T22:37:13.753Z,55.70
2023-04-02T22:39:50.820Z,55.56
2023-04-02T22:42:18.673Z,55.30
2023-04-02T22:45:05.594Z,54.09
2023-04-02T22:47:33.397Z,54.56
2023-04-02T22:50:01.561Z,55.02
2023-04-02T22:55:16.049Z,57.62
2023-04-02T22:57:44.114Z,57.15
2023-04-02T23:00:16.073Z,57.56
2023-04-02T23:07:52.478Z,56.71
2023-04-02T23:10:20.649Z,57.21
2023-04-02T23:12:48.737Z,57.36
2023-04-02T23:15:17.460Z,57.74
2023-04-02T23:17:45.440Z,58.44
2023-04-02T23:20:13.461Z,59.26
2023-04-02T23:22:41.404Z,59.17
2023-04-02T23:25:09.408Z,58.73
2023-04-02T23:27:37.408Z,58.45
2023-04-02T23:30:06.687Z,58.11
2023-04-02T23:32:34.695Z,58.42
2023-04-02T23:35:02.585Z,57.49
2023-04-02T23:37:30.615Z,58.95
2023-04-02T23:39:58.569Z,58.97
2023-04-02T23:42:27.284Z,58.84
2023-04-02T23:44:56.546Z,58.25
2023-04-02T23:47:24.558Z,59.44
2023-04-02T23:49:52.561Z,59.58
2023-04-02T23:52:20.416Z,59.77
2023-04-02T23:54:48.418Z,59.34
2023-04-02T23:57:17.371Z,60.47
2023-04-02T23:59:45.348Z,59.87
